General Soler, Argentina
Current Conditions -  °F | °C
As of 1:00 PM on Saturday 25 Oct 2014 (Local Time) from SAOC Reporting Station
Clear Clear  
Wind Chill: 32°   Ceiling: Unl
Heat Index: 32°   Visibility: 6mi
Dew Point: 13°   Wind: 24mph
Humidity: 31%   Direction: 360°N
Pressure: 29.85"   Gusts: NA
Location:  33.95°S, 64.24°W
Report Text: SAOC 251600Z 36021KT CAVOK 32/13 Q1011
Loading
Personal Weather Stations






























Interactive Weather Map
Tropical Storm Tracking
New forecast layout! Learn more

10-Day Weather Forecast

Advertisements
Track Severe Weather on mobile